createdAt,value
2022-12-31T00:00:22.058Z,97124.66
2022-12-31T00:02:49.098Z,97120.25
2022-12-31T00:05:16.303Z,97130.22
2022-12-31T00:10:09.136Z,97133.50
2022-12-31T00:12:36.115Z,97116.16
2022-12-31T00:15:03.789Z,97120.72
2022-12-31T00:17:30.819Z,97126.81
2022-12-31T00:19:57.863Z,97127.03
2022-12-31T00:22:26.723Z,97121.44
2022-12-31T00:24:53.773Z,97115.56
2022-12-31T00:27:22.542Z,97129.25
2022-12-31T00:29:49.468Z,97128.47
2022-12-31T00:32:16.538Z,97130.47
2022-12-31T00:34:43.341Z,97127.91
2022-12-31T00:37:10.325Z,97130.94
2022-12-31T00:39:37.926Z,97136.25
2022-12-31T00:42:05.219Z,97134.97
2022-12-31T00:44:32.812Z,97136.50
2022-12-31T00:46:59.711Z,97140.53
2022-12-31T00:49:26.610Z,97142.84
2022-12-31T00:51:53.780Z,97158.63
2022-12-31T00:54:20.647Z,97152.75
2022-12-31T00:56:47.583Z,97146.63
2022-12-31T00:59:14.413Z,97150.91
2022-12-31T01:01:42.732Z,97158.03
2022-12-31T01:04:13.001Z,97150.66
2022-12-31T01:06:40.968Z,97165.41
2022-12-31T01:09:08.656Z,97176.88
2022-12-31T01:11:36.161Z,97179.16
2022-12-31T01:14:03.582Z,97173.00
2022-12-31T01:16:34.512Z,97187.06
2022-12-31T01:19:06.583Z,97190.34
2022-12-31T01:21:35.026Z,97195.41
2022-12-31T01:24:02.257Z,97189.03
2022-12-31T01:26:30.008Z,97196.66
2022-12-31T01:28:58.364Z,97201.75
2022-12-31T01:31:26.182Z,97196.34
2022-12-31T01:33:55.188Z,97203.50
2022-12-31T01:36:28.155Z,97189.72
2022-12-31T01:38:56.970Z,97197.56
2022-12-31T01:41:35.085Z,97193.75
2022-12-31T01:44:14.114Z,97189.34
2022-12-31T01:46:53.135Z,97191.94
2022-12-31T01:49:29.612Z,97201.06
2022-12-31T01:52:07.548Z,97190.56
2022-12-31T01:54:40.632Z,97210.72
2022-12-31T01:57:09.525Z,97206.06
2022-12-31T01:59:37.295Z,97210.66
2022-12-31T02:02:05.163Z,97192.44
2022-12-31T02:04:32.263Z,97207.75
2022-12-31T02:07:03.156Z,97207.22
2022-12-31T02:09:31.432Z,97208.19
2022-12-31T02:11:58.331Z,97203.56
2022-12-31T02:14:36.121Z,97200.13
2022-12-31T02:17:24.744Z,97208.81
2022-12-31T02:20:13.804Z,97215.97
2022-12-31T02:23:10.903Z,97210.34
2022-12-31T02:26:17.689Z,97207.72
2022-12-31T02:29:12.419Z,97201.13
2022-12-31T02:31:50.290Z,97209.00
2022-12-31T02:34:26.552Z,97211.53
2022-12-31T02:36:58.305Z,97194.94
2022-12-31T02:39:29.103Z,97193.56
2022-12-31T02:41:56.032Z,97184.56
2022-12-31T02:44:27.589Z,97177.66
2022-12-31T02:47:09.694Z,97187.63
2022-12-31T02:50:04.679Z,97179.44
2022-12-31T02:53:02.009Z,97184.28
2022-12-31T02:56:01.153Z,97185.59
2022-12-31T02:59:05.167Z,97189.38
2022-12-31T03:01:56.070Z,97185.06
2022-12-31T03:04:35.990Z,97180.91
2022-12-31T03:07:14.141Z,97170.41
2022-12-31T03:09:42.364Z,97178.03
2022-12-31T03:12:33.259Z,97166.56
2022-12-31T03:15:02.933Z,97181.06
2022-12-31T03:17:34.531Z,97181.06
2022-12-31T03:20:29.848Z,97184.88
2022-12-31T03:22:57.230Z,97180.75
2022-12-31T03:25:35.163Z,97189.41
2022-12-31T03:28:04.764Z,97185.31
2022-12-31T03:30:32.719Z,97176.09
2022-12-31T03:33:01.860Z,97189.13
2022-12-31T03:35:30.200Z,97192.47
2022-12-31T03:37:58.681Z,97184.53
2022-12-31T03:40:30.267Z,97202.44
2022-12-31T03:42:57.713Z,97197.34
2022-12-31T03:45:24.947Z,97190.41
2022-12-31T03:47:52.775Z,97208.28
2022-12-31T03:50:21.336Z,97199.06
2022-12-31T03:52:48.739Z,97191.69
2022-12-31T03:55:18.721Z,97204.63
2022-12-31T03:57:45.659Z,97191.63
2022-12-31T04:00:15.119Z,97197.47
2022-12-31T04:02:42.427Z,97206.59
2022-12-31T04:05:09.657Z,97195.00
2022-12-31T04:07:36.704Z,97184.25
2022-12-31T04:10:09.034Z,97201.31
2022-12-31T04:12:36.818Z,97201.50
2022-12-31T04:15:07.299Z,97198.16
2022-12-31T04:17:34.276Z,97195.56
2022-12-31T04:20:05.809Z,97212.16
2022-12-31T04:22:32.780Z,97210.09
2022-12-31T04:25:00.843Z,97210.31
2022-12-31T04:27:27.965Z,97194.50
2022-12-31T04:29:54.886Z,97202.31
2022-12-31T04:32:22.677Z,97200.00
2022-12-31T04:34:49.580Z,97203.59
2022-12-31T04:37:18.573Z,97211.53
2022-12-31T04:39:45.488Z,97210.75
2022-12-31T04:42:12.624Z,97213.56
2022-12-31T04:44:39.475Z,97217.91
2022-12-31T04:47:06.279Z,97206.66
2022-12-31T04:49:33.281Z,97209.66
2022-12-31T04:52:00.099Z,97216.84
2022-12-31T04:54:27.135Z,97206.84
2022-12-31T04:56:53.974Z,97214.25
2022-12-31T04:59:20.855Z,97212.97
2022-12-31T05:01:47.921Z,97214.25
2022-12-31T05:04:15.007Z,97212.44
2022-12-31T05:06:41.940Z,97216.25
2022-12-31T05:09:08.803Z,97215.16
2022-12-31T05:11:35.930Z,97214.06
2022-12-31T05:14:02.765Z,97229.69
2022-12-31T05:16:29.677Z,97222.00
2022-12-31T05:18:56.531Z,97230.13
2022-12-31T05:21:23.436Z,97225.25
2022-12-31T05:23:50.319Z,97220.38
2022-12-31T05:26:17.482Z,97219.28
2022-12-31T05:28:44.810Z,97229.28
2022-12-31T05:31:11.792Z,97229.28
2022-12-31T05:33:39.597Z,97226.44
2022-12-31T05:36:06.795Z,97238.16
2022-12-31T05:38:33.752Z,97245.31
2022-12-31T05:41:04.399Z,97234.06
2022-12-31T05:43:32.738Z,97247.06
2022-12-31T05:46:05.702Z,97245.75
2022-12-31T05:48:32.599Z,97241.84
2022-12-31T05:50:59.523Z,97251.59
2022-12-31T05:53:26.356Z,97252.94
2022-12-31T05:55:53.157Z,97255.94
2022-12-31T05:58:20.515Z,97246.72
2022-12-31T06:00:49.150Z,97254.44
2022-12-31T06:03:16.186Z,97253.91
2022-12-31T06:05:43.567Z,97267.47
2022-12-31T06:08:12.286Z,97252.03
2022-12-31T06:10:40.521Z,97249.78
2022-12-31T06:13:07.912Z,97250.53
2022-12-31T06:15:40.289Z,97250.75
2022-12-31T06:18:07.346Z,97266.91
2022-12-31T06:20:36.804Z,97258.25
2022-12-31T06:23:04.897Z,97251.50
2022-12-31T06:25:31.897Z,97244.91
2022-12-31T06:27:58.709Z,97253.81
2022-12-31T06:30:25.528Z,97257.38
2022-12-31T06:32:52.526Z,97264.00
2022-12-31T06:35:19.302Z,97258.88
2022-12-31T06:37:46.701Z,97262.25
2022-12-31T06:40:14.088Z,97274.75
2022-12-31T06:42:45.202Z,97277.22
2022-12-31T06:45:14.439Z,97275.16
2022-12-31T06:47:41.286Z,97273.31
2022-12-31T06:50:08.741Z,97281.25
2022-12-31T06:52:35.660Z,97287.66
2022-12-31T06:55:04.759Z,97286.34
2022-12-31T06:57:32.024Z,97282.22
2022-12-31T06:59:59.279Z,97293.50
2022-12-31T07:02:46.458Z,97288.09
2022-12-31T07:05:26.906Z,97295.25
2022-12-31T07:07:53.718Z,97303.91
2022-12-31T07:10:56.308Z,97313.69
2022-12-31T07:13:46.671Z,97311.41
2022-12-31T07:16:51.914Z,97329.31
2022-12-31T07:19:33.810Z,97318.78
2022-12-31T07:22:01.162Z,97315.22
2022-12-31T07:24:28.382Z,97319.75
2022-12-31T07:27:06.431Z,97318.25
2022-12-31T07:29:57.293Z,97320.53
2022-12-31T07:32:34.163Z,97325.09
2022-12-31T07:35:09.672Z,97320.22
2022-12-31T07:38:00.079Z,97325.53
2022-12-31T07:40:50.074Z,97336.50
2022-12-31T07:43:35.726Z,97326.19
2022-12-31T07:46:24.629Z,97335.41
2022-12-31T07:48:52.086Z,97339.75
2022-12-31T07:51:21.237Z,97336.59
2022-12-31T07:53:50.595Z,97345.28
2022-12-31T07:56:17.637Z,97336.28
2022-12-31T07:59:03.980Z,97353.63
2022-12-31T08:01:51.875Z,97350.81
2022-12-31T08:04:18.760Z,97339.75
2022-12-31T08:06:45.587Z,97346.16
2022-12-31T08:09:50.334Z,97354.09
2022-12-31T08:12:19.889Z,97342.81
2022-12-31T08:14:48.164Z,97356.78
2022-12-31T08:17:18.048Z,97361.38
2022-12-31T08:19:48.613Z,97356.94
2022-12-31T08:22:28.226Z,97359.19
2022-12-31T08:25:03.430Z,97363.00
2022-12-31T08:27:50.893Z,97351.91
2022-12-31T08:30:21.284Z,97359.50
2022-12-31T08:32:53.071Z,97364.84
2022-12-31T08:35:47.925Z,97374.28
2022-12-31T08:38:45.853Z,97360.59
2022-12-31T08:41:30.297Z,97374.59
2022-12-31T08:44:31.630Z,97367.13
2022-12-31T08:47:17.866Z,97377.56
2022-12-31T08:49:44.888Z,97377.78
2022-12-31T08:52:30.495Z,97382.56
2022-12-31T08:54:57.902Z,97395.03
2022-12-31T08:57:53.409Z,97395.47
2022-12-31T09:00:20.967Z,97397.19
2022-12-31T09:03:03.131Z,97383.28
2022-12-31T09:05:58.815Z,97387.66
2022-12-31T09:08:46.822Z,97385.78
2022-12-31T09:11:29.350Z,97374.69
2022-12-31T09:14:40.425Z,97394.34
2022-12-31T09:17:29.012Z,97399.47
2022-12-31T09:19:57.569Z,97399.69
2022-12-31T09:22:24.809Z,97398.59
2022-12-31T09:24:51.792Z,97404.44
2022-12-31T09:27:28.328Z,97406.94
2022-12-31T09:30:04.037Z,97401.72
2022-12-31T09:33:00.329Z,97412.69
2022-12-31T09:35:57.857Z,97430.06
2022-12-31T09:38:53.195Z,97432.38
2022-12-31T09:41:35.693Z,97427.13
2022-12-31T09:44:35.917Z,97434.16
2022-12-31T09:47:21.238Z,97437.41
2022-12-31T09:50:20.915Z,97438.06
2022-12-31T09:53:24.821Z,97438.72
2022-12-31T09:56:26.380Z,97428.56
2022-12-31T09:59:13.070Z,97429.41
2022-12-31T10:01:54.573Z,97433.63
2022-12-31T10:04:40.872Z,97425.75
2022-12-31T10:07:32.675Z,97428.47
2022-12-31T10:10:05.554Z,97429.06
2022-12-31T10:13:12.860Z,97435.03
2022-12-31T10:15:59.476Z,97426.25
2022-12-31T10:18:59.995Z,97419.78
2022-12-31T10:21:44.279Z,97417.59
2022-12-31T10:24:32.096Z,97404.28
2022-12-31T10:27:08.662Z,97411.69
2022-12-31T10:30:00.180Z,97413.25
2022-12-31T10:32:44.044Z,97399.69
2022-12-31T10:35:16.893Z,97402.38
2022-12-31T10:37:59.928Z,97418.66
2022-12-31T10:40:51.663Z,97416.44
2022-12-31T10:43:45.938Z,97414.59
2022-12-31T10:46:48.918Z,97407.22
2022-12-31T10:49:53.613Z,97418.88
2022-12-31T10:52:51.921Z,97424.22
2022-12-31T10:55:31.901Z,97427.25
2022-12-31T10:58:10.129Z,97424.25
2022-12-31T11:00:46.873Z,97415.97
2022-12-31T11:03:35.077Z,97417.66
2022-12-31T11:06:23.754Z,97434.16
2022-12-31T11:09:17.465Z,97431.13
2022-12-31T11:12:01.505Z,97434.75
2022-12-31T11:14:46.571Z,97420.34
2022-12-31T11:17:21.209Z,97425.69
2022-12-31T11:20:12.300Z,97431.78
2022-12-31T11:23:16.733Z,97434.63
2022-12-31T11:25:50.019Z,97420.22
2022-12-31T11:28:33.421Z,97425.13
2022-12-31T11:31:18.969Z,97431.56
2022-12-31T11:34:16.567Z,97424.19
2022-12-31T11:37:11.411Z,97409.22
2022-12-31T11:39:47.613Z,97418.75
2022-12-31T11:42:51.803Z,97410.97
2022-12-31T11:45:35.715Z,97417.97
2022-12-31T11:48:32.895Z,97417.75
2022-12-31T11:51:33.472Z,97412.44
2022-12-31T11:54:41.231Z,97418.88
2022-12-31T11:57:37.462Z,97421.50
2022-12-31T12:00:05.368Z,97425.84
2022-12-31T12:02:49.089Z,97418.03
2022-12-31T12:05:20.515Z,97402.31
2022-12-31T12:07:49.011Z,97421.84
2022-12-31T12:10:36.816Z,97424.28
2022-12-31T12:13:13.758Z,97430.63
2022-12-31T12:15:49.594Z,97435.84
2022-12-31T12:18:28.442Z,97426.34
2022-12-31T12:21:06.083Z,97402.41
2022-12-31T12:23:33.164Z,97412.41
2022-12-31T12:26:00.124Z,97431.66
2022-12-31T12:28:30.161Z,97423.84
2022-12-31T12:31:07.730Z,97416.56
2022-12-31T12:33:44.092Z,97424.16
2022-12-31T12:36:15.714Z,97414.53
2022-12-31T12:38:43.450Z,97403.56
2022-12-31T12:41:18.640Z,97419.44
2022-12-31T12:43:45.589Z,97424.69
2022-12-31T12:46:31.491Z,97424.41
2022-12-31T12:48:58.840Z,97440.16
2022-12-31T12:51:44.266Z,97426.38
2022-12-31T12:54:49.793Z,97450.63
2022-12-31T12:57:24.627Z,97453.59
2022-12-31T12:59:54.530Z,97450.81
2022-12-31T13:03:01.181Z,97447.84
2022-12-31T13:06:23.021Z,97451.78
2022-12-31T13:09:14.019Z,97448.84
2022-12-31T13:12:07.795Z,97449.75
2022-12-31T13:14:54.085Z,97457.72
2022-12-31T13:18:01.952Z,97450.97
2022-12-31T13:20:50.314Z,97444.13
2022-12-31T13:23:34.829Z,97452.88
2022-12-31T13:26:23.515Z,97434.84
2022-12-31T13:28:53.276Z,97435.25
2022-12-31T13:31:26.558Z,97424.72
2022-12-31T13:34:01.182Z,97434.84
2022-12-31T13:36:32.904Z,97425.66
2022-12-31T13:39:05.739Z,97406.38
2022-12-31T13:41:38.919Z,97419.66
2022-12-31T13:44:15.070Z,97426.53
2022-12-31T13:47:32.972Z,97442.13
2022-12-31T13:50:14.248Z,97437.63
2022-12-31T13:52:53.080Z,97441.50
2022-12-31T13:55:35.895Z,97435.38
2022-12-31T13:58:16.164Z,97441.97
2022-12-31T14:00:55.622Z,97453.03
2022-12-31T14:03:27.736Z,97460.25
2022-12-31T14:06:24.126Z,97467.47
2022-12-31T14:08:53.490Z,97478.31
2022-12-31T14:11:55.808Z,97478.66
2022-12-31T14:14:45.859Z,97487.06
2022-12-31T14:17:31.244Z,97472.34
2022-12-31T14:20:07.540Z,97487.81
2022-12-31T14:22:56.397Z,97488.44
2022-12-31T14:25:29.112Z,97478.97
2022-12-31T14:27:58.081Z,97485.78
2022-12-31T14:30:31.156Z,97478.22
2022-12-31T14:33:36.010Z,97486.56
2022-12-31T14:36:23.272Z,97478.97
2022-12-31T14:39:17.426Z,97477.47
2022-12-31T14:42:12.883Z,97484.63
2022-12-31T14:44:50.616Z,97484.25
2022-12-31T14:47:59.410Z,97478.53
2022-12-31T14:50:29.784Z,97485.31
2022-12-31T14:53:02.465Z,97476.44
2022-12-31T14:55:34.589Z,97473.78
2022-12-31T15:01:09.243Z,97485.47
2022-12-31T15:03:46.065Z,97485.84
2022-12-31T15:06:32.032Z,97485.81
2022-12-31T15:09:15.213Z,97479.38
2022-12-31T15:12:00.947Z,97484.44
2022-12-31T15:14:44.680Z,97487.81
2022-12-31T15:17:39.545Z,97499.69
2022-12-31T15:20:28.802Z,97496.06
2022-12-31T15:22:56.165Z,97494.13
2022-12-31T15:25:35.388Z,97480.09
2022-12-31T15:28:36.461Z,97482.34
2022-12-31T15:31:20.921Z,97497.41
2022-12-31T15:34:25.047Z,97506.22
2022-12-31T15:36:55.490Z,97508.66
2022-12-31T15:39:36.671Z,97491.59
2022-12-31T15:42:37.483Z,97503.47
2022-12-31T15:44:59.710Z,97506.88
2022-12-31T15:47:38.516Z,97512.69
2022-12-31T15:50:12.530Z,97517.00
2022-12-31T15:52:48.157Z,97511.84
2022-12-31T15:55:33.975Z,97522.75
2022-12-31T15:58:10.108Z,97524.97
2022-12-31T16:00:52.429Z,97526.28
2022-12-31T16:03:24.255Z,97530.00
2022-12-31T16:05:57.583Z,97527.09
2022-12-31T16:08:28.922Z,97520.25
2022-12-31T16:10:58.138Z,97531.19
2022-12-31T16:13:29.160Z,97539.44
2022-12-31T16:16:03.716Z,97539.78
2022-12-31T16:18:40.477Z,97532.94
2022-12-31T16:21:22.761Z,97528.94
2022-12-31T16:23:52.214Z,97529.84
2022-12-31T16:26:19.234Z,97534.34
2022-12-31T16:28:49.554Z,97529.75
2022-12-31T16:31:20.022Z,97537.06
2022-12-31T16:33:47.788Z,97538.16
2022-12-31T16:36:22.225Z,97536.00
2022-12-31T16:38:49.948Z,97540.91
2022-12-31T16:41:19.332Z,97539.16
2022-12-31T16:43:49.146Z,97541.78
2022-12-31T16:46:27.202Z,97547.22
2022-12-31T16:49:15.882Z,97542.44
2022-12-31T16:51:42.925Z,97546.38
2022-12-31T16:54:20.848Z,97537.69
2022-12-31T16:56:48.034Z,97534.63
2022-12-31T16:59:30.520Z,97523.66
2022-12-31T17:02:06.791Z,97523.22
2022-12-31T17:04:33.846Z,97522.22
2022-12-31T17:07:31.362Z,97522.03
2022-12-31T17:10:07.156Z,97527.25
2022-12-31T17:13:17.483Z,97520.09
2022-12-31T17:15:41.356Z,97512.91
2022-12-31T17:18:18.026Z,97514.00
2022-12-31T17:20:44.904Z,97516.59
2022-12-31T17:23:23.632Z,97526.41
2022-12-31T17:25:58.423Z,97526.41
2022-12-31T17:28:27.643Z,97525.66
2022-12-31T17:31:28.260Z,97532.06
2022-12-31T17:34:05.503Z,97535.09
2022-12-31T17:36:32.504Z,97525.09
2022-12-31T17:39:16.832Z,97526.59
2022-12-31T17:41:47.926Z,97531.50
2022-12-31T17:44:22.018Z,97534.91
2022-12-31T17:46:50.426Z,97534.66
2022-12-31T17:49:19.370Z,97534.25
2022-12-31T17:51:47.859Z,97541.41
2022-12-31T17:54:16.624Z,97536.84
2022-12-31T17:56:44.010Z,97533.81
2022-12-31T17:59:19.043Z,97531.50
2022-12-31T18:01:45.963Z,97525.97
2022-12-31T18:04:14.689Z,97530.31
2022-12-31T18:06:42.206Z,97528.06
2022-12-31T18:09:09.458Z,97532.94
2022-12-31T18:11:38.710Z,97524.25
2022-12-31T18:14:05.529Z,97528.38
2022-12-31T18:16:32.314Z,97532.28
2022-12-31T18:19:00.797Z,97536.22
2022-12-31T18:21:33.123Z,97540.09
2022-12-31T18:26:28.474Z,97537.94
2022-12-31T18:28:56.889Z,97540.88
2022-12-31T18:31:29.946Z,97540.22
2022-12-31T18:33:58.782Z,97536.19
2022-12-31T18:36:27.650Z,97541.94
2022-12-31T18:38:54.659Z,97545.44
2022-12-31T18:41:24.251Z,97542.22
2022-12-31T18:43:51.119Z,97540.25
2022-12-31T18:46:23.907Z,97543.94
2022-12-31T18:48:50.955Z,97549.13
2022-12-31T18:51:20.730Z,97545.63
2022-12-31T18:53:48.083Z,97541.06
2022-12-31T18:56:19.825Z,97542.59
2022-12-31T18:58:47.120Z,97541.84
2022-12-31T19:01:37.396Z,97546.72
2022-12-31T19:04:13.438Z,97547.25
2022-12-31T19:06:40.589Z,97560.63
2022-12-31T19:09:23.752Z,97556.28
2022-12-31T19:11:54.151Z,97543.25
2022-12-31T19:14:24.293Z,97546.91
2022-12-31T19:16:53.433Z,97552.31
2022-12-31T19:19:21.215Z,97551.03
2022-12-31T19:21:48.278Z,97555.59
2022-12-31T19:24:21.563Z,97551.72
2022-12-31T19:26:49.216Z,97558.34
2022-12-31T19:29:19.255Z,97550.84
2022-12-31T19:31:46.221Z,97548.69
2022-12-31T19:34:13.133Z,97554.78
2022-12-31T19:36:44.146Z,97551.13
2022-12-31T19:39:20.283Z,97543.00
2022-12-31T19:41:56.629Z,97544.44
2022-12-31T19:44:25.986Z,97557.94
2022-12-31T19:46:52.773Z,97550.88
2022-12-31T19:49:19.488Z,97552.50
2022-12-31T19:51:46.343Z,97549.91
2022-12-31T19:54:13.451Z,97551.88
2022-12-31T19:56:40.615Z,97551.22
2022-12-31T19:59:09.569Z,97552.84
2022-12-31T20:01:36.606Z,97549.59
2022-12-31T20:04:03.739Z,97557.97
2022-12-31T20:06:31.483Z,97554.22
2022-12-31T20:08:58.332Z,97556.53
2022-12-31T20:11:25.319Z,97559.03
2022-12-31T20:13:54.046Z,97558.47
2022-12-31T20:16:23.766Z,97566.97
2022-12-31T20:18:51.023Z,97572.84
2022-12-31T20:21:23.489Z,97573.81
2022-12-31T20:23:51.133Z,97563.03
2022-12-31T20:26:19.468Z,97572.09
2022-12-31T20:28:46.562Z,97577.75
2022-12-31T20:31:16.049Z,97592.41
2022-12-31T20:33:43.172Z,97591.66
2022-12-31T20:36:12.992Z,97598.41
2022-12-31T20:38:40.013Z,97591.47
2022-12-31T20:41:08.509Z,97602.19
2022-12-31T20:43:36.339Z,97594.47
2022-12-31T20:46:14.554Z,97587.31
2022-12-31T20:48:42.335Z,97593.81
2022-12-31T20:51:09.116Z,97600.56
2022-12-31T20:53:36.062Z,97591.88
2022-12-31T20:56:07.146Z,97582.41
2022-12-31T20:58:34.640Z,97590.13
2022-12-31T21:01:01.622Z,97597.09
2022-12-31T21:04:03.780Z,97589.16
2022-12-31T21:06:15.781Z,97592.31
2022-12-31T21:08:43.282Z,97589.25
2022-12-31T21:11:28.947Z,97587.72
2022-12-31T21:13:57.435Z,97589.59
2022-12-31T21:16:25.281Z,97586.00
2022-12-31T21:18:52.818Z,97595.00
2022-12-31T21:21:19.812Z,97594.28
2022-12-31T21:23:46.958Z,97587.84
2022-12-31T21:26:13.934Z,97588.63
2022-12-31T21:28:40.707Z,97595.78
2022-12-31T21:31:08.389Z,97582.97
2022-12-31T21:33:35.376Z,97590.13
2022-12-31T21:36:04.661Z,97586.00
2022-12-31T21:38:32.004Z,97588.63
2022-12-31T21:41:06.812Z,97596.88
2022-12-31T21:43:33.992Z,97589.25
2022-12-31T21:46:05.920Z,97598.38
2022-12-31T21:48:33.407Z,97592.50
2022-12-31T21:51:09.991Z,97610.22
2022-12-31T21:53:37.604Z,97609.25
2022-12-31T21:56:16.203Z,97598.16
2022-12-31T21:59:12.048Z,97607.72
2022-12-31T22:01:57.468Z,97603.38
2022-12-31T22:05:00.493Z,97608.25
2022-12-31T22:07:10.944Z,97608.81
2022-12-31T22:09:37.662Z,97610.09
2022-12-31T22:12:04.741Z,97607.03
2022-12-31T22:14:31.449Z,97608.13
2022-12-31T22:16:58.211Z,97615.09
2022-12-31T22:19:26.082Z,97609.22
2022-12-31T22:21:52.867Z,97613.34
2022-12-31T22:24:19.601Z,97623.88
2022-12-31T22:26:47.072Z,97631.38
2022-12-31T22:29:14.010Z,97631.91
2022-12-31T22:31:40.807Z,97629.63
2022-12-31T22:34:07.667Z,97634.28
2022-12-31T22:36:34.547Z,97635.06
2022-12-31T22:39:01.339Z,97642.25
2022-12-31T22:41:29.154Z,97638.66
2022-12-31T22:44:05.823Z,97637.66
2022-12-31T22:46:33.872Z,97639.19
2022-12-31T22:49:02.466Z,97641.03
2022-12-31T22:51:58.710Z,97640.75
2022-12-31T22:54:24.517Z,97639.56
2022-12-31T22:56:51.968Z,97640.84
2022-12-31T22:59:19.465Z,97646.50
2022-12-31T23:01:46.883Z,97637.03
2022-12-31T23:04:14.552Z,97640.19
2022-12-31T23:06:44.445Z,97636.91
2022-12-31T23:09:42.141Z,97643.16
2022-12-31T23:12:09.920Z,97648.59
2022-12-31T23:14:56.015Z,97647.91
2022-12-31T23:17:45.630Z,97646.50
2022-12-31T23:20:41.733Z,97656.09
2022-12-31T23:23:14.273Z,97659.53
2022-12-31T23:25:47.273Z,97653.22
2022-12-31T23:28:21.620Z,97665.03
2022-12-31T23:30:53.756Z,97656.16
2022-12-31T23:33:25.928Z,97665.91
2022-12-31T23:36:06.523Z,97663.19
2022-12-31T23:38:33.407Z,97661.97
2022-12-31T23:41:00.293Z,97668.75
2022-12-31T23:43:30.198Z,97671.84
2022-12-31T23:45:57.114Z,97656.88
2022-12-31T23:48:23.954Z,97661.78
2022-12-31T23:50:54.149Z,97665.16
2022-12-31T23:53:23.019Z,97670.13
2022-12-31T23:55:50.483Z,97673.75
2022-12-31T23:58:17.501Z,97673.56
